Time;durP1;ratioP1;P1;durP2;ratioP2;P2;SDS_P1;SDS_P2;PMS_P1;PMS_P2;Temp;Humidity;BMP_temperature;BMP_pressure;BME280_temperature;BME280_humidity;BME280_pressure;Samples;Min_cycle;Max_cycle;Signal;HPM_P1;HPM_P2
2021/10/16 00:01:56;;;;;;;18.48;10.88;;;;;;;6.23;85.06;100796.61;1757775;81;20994;-79
2021/10/16 00:04:22;;;;;;;16.17;6.53;;;;;;;6.20;85.06;100791.10;1757613;81;20977;-79
2021/10/16 00:06:48;;;;;;;12.00;5.97;;;;;;;6.20;85.11;100792.42;1725332;83;20998;-79
2021/10/16 00:09:14;;;;;;;8.88;4.30;;;;;;;6.20;85.11;100789.77;1755641;81;21030;-79
2021/10/16 00:11:40;;;;;;;10.85;4.37;;;;;;;6.21;85.14;100792.78;1757238;81;21602;-79
2021/10/16 00:14:06;;;;;;;10.40;4.15;;;;;;;6.20;85.15;100793.75;1757228;81;21070;-79
2021/10/16 00:16:32;;;;;;;10.03;3.33;;;;;;;6.18;85.16;100791.73;1757279;81;21026;-79
2021/10/16 00:18:58;;;;;;;11.03;3.87;;;;;;;6.17;85.17;100796.66;1757543;81;21014;-79
2021/10/16 00:21:24;;;;;;;8.70;4.60;;;;;;;6.14;85.21;100798.26;1723838;83;21124;-79
2021/10/16 00:23:50;;;;;;;14.13;5.00;;;;;;;6.13;85.21;100797.89;1703896;82;21638;-79
2021/10/16 00:26:16;;;;;;;7.85;3.30;;;;;;;6.09;85.23;100787.72;1703838;84;21554;-79
2021/10/16 00:28:42;;;;;;;10.63;3.60;;;;;;;6.10;85.24;100794.19;1704021;84;21642;-78
2021/10/16 00:31:08;;;;;;;11.38;4.00;;;;;;;6.08;85.25;100800.11;1703912;84;21030;-78
2021/10/16 00:33:34;;;;;;;13.60;3.95;;;;;;;6.06;85.25;100802.04;1703818;84;21121;-78
2021/10/16 00:36:01;;;;;;;8.80;3.35;;;;;;;6.05;85.29;100801.70;1703837;84;21102;-78
2021/10/16 00:38:27;;;;;;;14.80;5.58;;;;;;;6.04;85.28;100802.67;1703306;84;21558;-78
2021/10/16 00:40:53;;;;;;;10.28;6.37;;;;;;;6.02;85.31;100797.97;1704189;84;21018;-78
2021/10/16 00:43:19;;;;;;;15.32;7.40;;;;;;;5.99;85.30;100796.91;1703556;84;20959;-79
2021/10/16 00:45:45;;;;;;;9.78;5.83;;;;;;;5.96;85.30;100798.50;1703914;84;21050;-78
2021/10/16 00:48:11;;;;;;;11.15;4.50;;;;;;;5.92;85.34;100799.72;1703349;84;21787;-78
2021/10/16 00:50:37;;;;;;;9.73;4.95;;;;;;;5.91;85.39;100798.07;1703685;84;21319;-79
2021/10/16 00:53:03;;;;;;;9.50;4.05;;;;;;;5.88;85.36;100798.30;1703955;84;20990;-79
2021/10/16 00:55:29;;;;;;;15.88;4.65;;;;;;;5.85;85.38;100798.53;1729498;82;21387;-79
2021/10/16 00:58:00;;;;;;;14.98;3.65;;;;;;;5.83;85.40;100803.13;1739651;82;21026;-79
2021/10/16 01:00:26;;;;;;;11.22;3.65;;;;;;;5.81;85.41;100814.31;1739362;82;21172;-79
2021/10/16 01:02:52;;;;;;;9.15;3.22;;;;;;;5.79;85.43;100810.97;1739275;82;21022;-80
2021/10/16 01:05:18;;;;;;;9.05;3.08;;;;;;;5.80;85.44;100815.30;1739529;82;21502;-79
2021/10/16 01:07:44;;;;;;;11.90;4.15;;;;;;;5.78;85.46;100815.90;1739334;82;21602;-79
2021/10/16 01:10:11;;;;;;;13.43;4.53;;;;;;;5.76;85.48;100816.53;1739055;82;21092;-79
2021/10/16 01:12:39;;;;;;;28.45;6.03;;;;;;;5.74;85.49;100812.67;1739090;82;21146;-78
2021/10/16 01:15:11;;;;;;;13.13;5.12;;;;;;;5.72;85.52;100805.84;1739513;82;21578;-78
2021/10/16 01:17:38;;;;;;;13.43;5.05;;;;;;;5.68;85.52;100810.55;1739546;82;21003;-79
2021/10/16 01:20:11;;;;;;;16.02;3.52;;;;;;;5.66;85.54;100804.56;1739445;82;21097;-78
2021/10/16 01:22:39;;;;;;;12.33;4.00;;;;;;;5.64;85.57;100806.95;1739621;82;21088;-78
2021/10/16 01:25:15;;;;;;;15.28;5.12;;;;;;;5.62;85.56;100812.39;1759992;81;21104;-78
2021/10/16 01:27:41;;;;;;;16.70;5.70;;;;;;;5.60;85.57;100810.82;1764096;80;21083;-79
2021/10/16 01:30:09;;;;;;;18.02;6.05;;;;;;;5.59;85.58;100808.69;1763782;80;21672;-79
2021/10/16 01:32:35;;;;;;;19.82;9.75;;;;;;;5.58;85.59;100808.80;1764249;80;21002;-79
2021/10/16 01:35:03;;;;;;;11.40;7.22;;;;;;;5.57;85.61;100804.47;1763726;81;21081;-79
2021/10/16 01:37:29;;;;;;;12.05;6.25;;;;;;;5.57;85.64;100809.76;1764039;81;21129;-78
2021/10/16 01:39:55;;;;;;;20.08;5.55;;;;;;;5.54;85.62;100809.06;1764003;81;21557;-78
2021/10/16 01:42:21;;;;;;;10.95;3.85;;;;;;;5.53;85.64;100811.34;1763786;80;21729;-78
2021/10/16 01:44:47;;;;;;;14.15;4.42;;;;;;;5.52;85.69;100821.55;1764194;81;20994;-78
2021/10/16 01:47:13;;;;;;;10.72;4.42;;;;;;;5.52;85.67;100816.27;1763870;81;21034;-78
2021/10/16 01:49:39;;;;;;;11.20;4.87;;;;;;;5.52;85.69;100813.63;1763760;81;21483;-79
2021/10/16 01:52:05;;;;;;;15.28;5.40;;;;;;;5.50;85.72;100812.92;1763513;81;21475;-78
2021/10/16 01:54:32;;;;;;;10.65;4.17;;;;;;;5.49;85.71;100821.81;1753888;81;21094;-78
2021/10/16 01:56:58;;;;;;;14.35;4.78;;;;;;;5.49;85.71;100815.20;1765428;81;21049;-79
2021/10/16 01:59:26;;;;;;;9.53;3.98;;;;;;;5.49;85.74;100820.48;1766424;81;21537;-79
2021/10/16 02:01:55;;;;;;;8.10;3.75;;;;;;;5.46;85.75;100815.45;1734350;82;21452;-78
2021/10/16 02:04:21;;;;;;;9.78;4.05;;;;;;;5.45;85.77;100817.73;1766009;81;21048;-78
2021/10/16 02:06:47;;;;;;;9.48;4.20;;;;;;;5.44;85.80;100815.23;1734192;82;21610;-78
2021/10/16 02:09:13;;;;;;;14.15;6.28;;;;;;;5.43;85.80;100810.42;1766011;81;21533;-79
2021/10/16 02:11:39;;;;;;;15.48;6.83;;;;;;;5.42;85.83;100820.64;1734232;82;21121;-79
2021/10/16 02:14:07;;;;;;;12.50;7.50;;;;;;;5.41;85.83;100814.17;1765888;81;21093;-79
2021/10/16 02:16:33;;;;;;;17.75;10.85;;;;;;;5.39;85.87;100815.61;1734149;82;21002;-79
2021/10/16 02:18:59;;;;;;;20.02;14.15;;;;;;;5.42;85.87;100823.28;1766261;81;21518;-79
2021/10/16 02:21:25;;;;;;;16.45;8.15;;;;;;;5.42;85.87;100827.25;1734072;82;21019;-79
2021/10/16 02:23:52;;;;;;;10.48;6.65;;;;;;;5.41;85.91;100824.28;1765603;80;21454;-79
2021/10/16 02:26:18;;;;;;;18.62;5.85;;;;;;;5.41;85.91;100833.53;1730854;82;21132;-79
2021/10/16 02:28:44;;;;;;;12.10;4.50;;;;;;;5.41;85.95;100832.21;1763185;81;21001;-79
2021/10/16 02:31:10;;;;;;;17.40;5.67;;;;;;;5.41;85.97;100833.53;1731237;82;21011;-79
2021/10/16 02:33:36;;;;;;;12.28;5.33;;;;;;;5.42;85.98;100838.31;1763209;81;21005;-79
2021/10/16 02:36:03;;;;;;;19.35;6.40;;;;;;;5.43;86.00;100840.84;1731100;82;21042;-79
2021/10/16 02:38:29;;;;;;;15.68;7.42;;;;;;;5.47;86.01;100838.30;1762932;81;22004;-79
2021/10/16 02:40:55;;;;;;;14.65;6.75;;;;;;;5.51;86.03;100845.50;1730983;82;21015;-79
2021/10/16 02:43:21;;;;;;;15.70;6.53;;;;;;;5.53;86.05;100852.34;1762843;81;21025;-79
2021/10/16 02:45:47;;;;;;;16.93;7.00;;;;;;;5.58;86.06;100852.45;1731344;82;21014;-79
2021/10/16 02:48:13;;;;;;;17.17;5.45;;;;;;;5.62;86.08;100853.40;1763226;81;21449;-78
2021/10/16 02:50:39;;;;;;;14.65;5.67;;;;;;;5.66;86.06;100852.66;1731292;82;21026;-78
2021/10/16 02:53:05;;;;;;;11.53;6.33;;;;;;;5.70;86.09;100856.73;1762532;81;21648;-78
2021/10/16 02:55:31;;;;;;;18.77;7.60;;;;;;;5.71;86.09;100851.78;1753532;81;21474;-78
2021/10/16 02:57:57;;;;;;;21.80;8.75;;;;;;;5.71;86.12;100857.07;1794888;79;21028;-78
2021/10/16 03:00:23;;;;;;;24.45;12.18;;;;;;;5.72;86.13;100864.05;1794677;79;20993;-78
2021/10/16 03:02:49;;;;;;;18.25;9.78;;;;;;;5.71;86.14;100862.36;1794903;79;21153;-78
2021/10/16 03:05:15;;;;;;;19.70;11.57;;;;;;;5.71;86.17;100870.30;1794221;79;21104;-78
2021/10/16 03:07:41;;;;;;;16.40;8.43;;;;;;;5.71;86.17;100871.63;1794924;79;21032;-78
2021/10/16 03:10:08;;;;;;;14.87;7.90;;;;;;;5.72;86.17;100874.63;1794529;79;21044;-78
2021/10/16 03:12:34;;;;;;;18.92;8.40;;;;;;;5.73;86.19;100877.64;1794807;79;21036;-78
2021/10/16 03:15:00;;;;;;;16.27;7.60;;;;;;;5.72;86.23;100879.92;1794958;79;21470;-78
2021/10/16 03:17:26;;;;;;;15.10;7.62;;;;;;;5.72;86.25;100877.28;1794809;79;21687;-78
2021/10/16 03:19:52;;;;;;;19.17;6.83;;;;;;;5.69;86.25;100880.19;1794943;79;21020;-78
2021/10/16 03:22:18;;;;;;;16.00;6.72;;;;;;;5.69;86.28;100882.36;1794646;79;21088;-78
2021/10/16 03:24:44;;;;;;;14.58;7.10;;;;;;;5.70;86.30;100892.45;1794640;79;21087;-78
2021/10/16 03:27:10;;;;;;;15.32;7.85;;;;;;;5.69;86.29;100896.06;1795311;79;21402;-79
2021/10/16 03:29:36;;;;;;;14.98;7.00;;;;;;;5.71;86.33;100898.09;1795365;79;21049;-79
2021/10/16 03:32:03;;;;;;;16.77;7.72;;;;;;;5.71;86.33;100900.73;1794785;79;21455;-79
2021/10/16 03:34:30;;;;;;;17.60;7.53;;;;;;;5.73;86.37;100906.75;1795245;79;21810;-79
2021/10/16 03:36:56;;;;;;;21.05;8.40;;;;;;;5.74;86.37;100904.44;1795060;79;21040;-78
2021/10/16 03:39:22;;;;;;;18.67;9.80;;;;;;;5.72;86.39;100904.59;1795189;79;21142;-78
2021/10/16 03:41:48;;;;;;;23.40;10.10;;;;;;;5.74;86.40;100909.73;1795359;79;21452;-78
2021/10/16 03:44:14;;;;;;;24.00;15.03;;;;;;;5.75;86.42;100908.78;1795489;79;20981;-79
2021/10/16 03:46:40;;;;;;;22.52;10.28;;;;;;;5.75;86.45;100907.45;1795632;79;21612;-79
2021/10/16 03:49:06;;;;;;;27.77;14.58;;;;;;;5.74;86.46;100913.70;1794912;79;21384;-78
2021/10/16 03:51:33;;;;;;;27.35;13.62;;;;;;;5.73;86.47;100916.02;1795086;79;21223;-78
2021/10/16 03:54:00;;;;;;;22.32;10.65;;;;;;;5.72;86.48;100921.78;1792223;79;20996;-78
2021/10/16 03:56:26;;;;;;;17.92;9.85;;;;;;;5.71;86.50;100928.52;1740077;81;21572;-79
2021/10/16 03:58:52;;;;;;;23.98;10.18;;;;;;;5.70;86.51;100933.47;1766309;81;20978;-79
2021/10/16 04:01:18;;;;;;;26.27;11.63;;;;;;;5.69;86.54;100935.27;1765870;81;21061;-78
2021/10/16 04:03:44;;;;;;;22.42;10.58;;;;;;;5.69;86.54;100936.59;1766049;81;21157;-79
2021/10/16 04:06:10;;;;;;;18.77;8.60;;;;;;;5.70;86.55;100934.80;1766185;81;20982;-79
2021/10/16 04:08:36;;;;;;;24.92;8.28;;;;;;;5.71;86.57;100936.45;1766189;81;20982;-79
2021/10/16 04:11:02;;;;;;;29.27;15.05;;;;;;;5.71;86.58;100940.42;1765983;81;20997;-79
2021/10/16 04:13:28;;;;;;;18.05;9.15;;;;;;;5.73;86.57;100942.48;1766068;81;21575;-79
2021/10/16 04:15:54;;;;;;;16.20;7.65;;;;;;;5.74;86.61;100944.13;1766116;81;22133;-79
2021/10/16 04:18:20;;;;;;;20.88;9.18;;;;;;;5.74;86.63;100939.69;1765682;81;20981;-79
2021/10/16 04:20:46;;;;;;;17.85;8.80;;;;;;;5.74;86.63;100937.04;1766347;81;20909;-79
2021/10/16 04:23:12;;;;;;;23.67;10.15;;;;;;;5.74;86.65;100940.16;1765832;80;21060;-79
2021/10/16 04:25:38;;;;;;;27.02;12.03;;;;;;;5.73;86.63;100942.00;1762279;80;20989;-79
2021/10/16 04:28:04;;;;;;;29.00;12.40;;;;;;;5.75;86.66;100941.38;1760587;80;21467;-78
2021/10/16 04:30:30;;;;;;;30.62;19.82;;;;;;;5.76;86.67;100936.93;1763714;80;21053;-78
2021/10/16 04:32:59;;;;;;;28.40;14.15;;;;;;;5.75;86.68;100936.08;1760038;80;21009;-79
2021/10/16 04:35:25;;;;;;;28.42;15.38;;;;;;;5.75;86.71;100937.88;1760026;81;21844;-78
2021/10/16 04:37:52;;;;;;;23.60;10.95;;;;;;;5.73;86.71;100934.06;1760154;81;21085;-78
2021/10/16 04:40:20;;;;;;;23.25;10.60;;;;;;;5.74;86.72;100936.20;1759364;81;21122;-78
2021/10/16 04:42:47;;;;;;;22.37;9.00;;;;;;;5.74;86.76;100941.48;1759760;81;20994;-79
2021/10/16 04:45:13;;;;;;;23.20;9.55;;;;;;;5.74;86.77;100939.69;1759960;81;20990;-79
2021/10/16 04:47:39;;;;;;;20.50;9.25;;;;;;;5.73;86.77;100935.38;1759908;81;20894;-79
2021/10/16 04:50:07;;;;;;;24.98;9.83;;;;;;;5.73;86.79;100939.83;1759920;81;21656;-79
2021/10/16 04:52:33;;;;;;;26.12;8.93;;;;;;;5.71;86.81;100927.19;1759890;81;21322;-79
2021/10/16 04:54:59;;;;;;;17.45;8.88;;;;;;;5.72;86.82;100935.49;1759823;81;21461;-79
2021/10/16 04:57:25;;;;;;;25.75;8.78;;;;;;;5.71;86.85;100939.09;1759628;81;21053;-79
2021/10/16 04:59:51;;;;;;;19.90;8.40;;;;;;;5.71;86.84;100935.13;1759987;81;21001;-79
2021/10/16 05:02:17;;;;;;;23.12;8.83;;;;;;;5.70;86.85;100942.73;1759920;81;21454;-79
2021/10/16 05:04:43;;;;;;;18.50;7.83;;;;;;;5.67;86.85;100940.31;1759919;81;21840;-79
2021/10/16 05:07:09;;;;;;;17.65;9.03;;;;;;;5.64;86.87;100939.23;1759600;81;20994;-79
2021/10/16 05:09:35;;;;;;;22.82;9.50;;;;;;;5.63;86.90;100944.20;1759924;81;21041;-79
2021/10/16 05:12:02;;;;;;;19.98;10.95;;;;;;;5.62;86.91;100945.16;1759641;81;21025;-78
2021/10/16 05:14:28;;;;;;;25.75;13.22;;;;;;;5.62;86.89;100939.86;1759955;81;21025;-79
2021/10/16 05:16:54;;;;;;;30.27;14.85;;;;;;;5.62;86.93;100947.32;1760043;81;21151;-79
2021/10/16 05:19:20;;;;;;;23.75;10.30;;;;;;;5.63;86.92;100949.48;1759707;80;20985;-79
2021/10/16 05:21:46;;;;;;;31.27;12.37;;;;;;;5.64;86.92;100953.80;1760112;81;21056;-79
2021/10/16 05:24:12;;;;;;;19.60;10.05;;;;;;;5.64;86.93;100956.44;1759371;81;21550;-79
2021/10/16 05:26:40;;;;;;;20.15;7.97;;;;;;;5.66;86.93;100959.81;1759851;81;21034;-78
2021/10/16 05:29:06;;;;;;;18.17;8.15;;;;;;;5.67;86.95;100962.80;1760099;81;21180;-78
2021/10/16 05:31:32;;;;;;;22.52;10.80;;;;;;;5.66;86.94;100965.11;1728166;83;21030;-79
2021/10/16 05:33:58;;;;;;;23.55;8.85;;;;;;;5.67;86.96;100969.41;1760150;81;21093;-78
2021/10/16 05:36:24;;;;;;;21.85;9.28;;;;;;;5.68;86.96;100973.75;1728259;83;21031;-78
2021/10/16 05:38:50;;;;;;;15.80;8.65;;;;;;;5.71;86.96;100973.50;1760185;81;21511;-78
2021/10/16 05:41:16;;;;;;;22.70;7.92;;;;;;;5.71;86.98;100973.50;1760078;81;21126;-78
2021/10/16 05:43:42;;;;;;;23.57;10.58;;;;;;;5.69;86.98;100976.77;1728118;83;21503;-78
2021/10/16 05:46:08;;;;;;;27.98;12.35;;;;;;;5.69;86.99;100980.73;1760144;81;21011;-78
2021/10/16 05:48:35;;;;;;;29.75;9.40;;;;;;;5.68;86.98;100985.18;1728157;83;21035;-78
2021/10/16 05:51:01;;;;;;;28.55;11.20;;;;;;;5.69;86.99;100993.96;1760079;81;21062;-79
2021/10/16 05:53:27;;;;;;;22.45;10.58;;;;;;;5.71;87.00;101003.92;1729024;83;21157;-78
2021/10/16 05:55:53;;;;;;;31.50;11.95;;;;;;;5.72;87.02;100993.70;1760196;81;20980;-78
2021/10/16 05:58:19;;;;;;;26.30;13.10;;;;;;;5.74;87.00;100994.41;1760012;81;20999;-79
2021/10/16 06:00:45;;;;;;;25.30;13.98;;;;;;;5.73;87.01;100994.92;1760526;80;20943;-78
2021/10/16 06:03:11;;;;;;;22.25;14.10;;;;;;;5.74;87.02;100998.38;1758784;80;21267;-78
2021/10/16 06:05:38;;;;;;;35.63;17.23;;;;;;;5.75;87.01;101004.05;1730843;82;21135;-78
2021/10/16 06:08:04;;;;;;;21.30;14.55;;;;;;;5.76;87.02;101004.41;1771788;80;21617;-79
2021/10/16 06:10:31;;;;;;;31.23;15.28;;;;;;;5.77;87.05;101010.07;1762198;80;21436;-78
2021/10/16 06:12:57;;;;;;;25.50;12.68;;;;;;;5.78;87.06;101018.34;1773515;79;21486;-79
2021/10/16 06:15:23;;;;;;;32.00;14.75;;;;;;;5.78;87.07;101021.84;1786154;79;20986;-79
2021/10/16 06:17:49;;;;;;;28.73;16.37;;;;;;;5.81;87.07;101027.35;1772251;79;21056;-79
2021/10/16 06:20:15;;;;;;;30.37;17.40;;;;;;;5.83;87.08;101034.70;1729027;81;21525;-78
2021/10/16 06:22:41;;;;;;;24.20;12.70;;;;;;;5.86;87.10;101041.10;1758368;80;21035;-79
2021/10/16 06:25:08;;;;;;;33.75;17.52;;;;;;;5.87;87.09;101041.47;1757496;80;21491;-78
2021/10/16 06:27:34;;;;;;;35.15;17.42;;;;;;;5.90;87.12;101045.19;1757634;80;21097;-79
2021/10/16 06:30:00;;;;;;;29.85;16.15;;;;;;;5.91;87.10;101057.47;1753316;80;21108;-79
2021/10/16 06:32:26;;;;;;;23.75;14.65;;;;;;;5.89;87.08;101054.09;1766832;79;21090;-79
2021/10/16 06:34:52;;;;;;;33.73;16.02;;;;;;;5.88;87.09;101062.98;1746348;80;21052;-79
2021/10/16 06:37:18;;;;;;;45.15;21.68;;;;;;;5.88;87.10;101061.66;1730419;81;21018;-78
2021/10/16 06:39:44;;;;;;;44.25;21.35;;;;;;;5.90;87.10;101061.91;1725680;81;21024;-76
2021/10/16 06:42:10;;;;;;;38.90;21.17;;;;;;;5.92;87.10;101059.12;1748390;82;21140;-76
2021/10/16 06:44:36;;;;;;;45.30;24.63;;;;;;;5.93;87.09;101071.41;1742813;82;21531;-72
2021/10/16 06:47:02;;;;;;;33.88;19.05;;;;;;;5.94;87.12;101071.30;1735522;81;20989;-70
2021/10/16 06:49:30;;;;;;;27.87;15.50;;;;;;;5.92;87.11;101069.72;1745103;81;21018;-75
2021/10/16 06:51:57;;;;;;;25.72;15.28;;;;;;;5.96;87.10;101073.80;1741352;82;21536;-75
2021/10/16 06:54:23;;;;;;;34.08;18.40;;;;;;;6.00;87.12;101077.89;1740991;82;21430;-75
2021/10/16 06:56:49;;;;;;;34.00;21.45;;;;;;;6.02;87.09;101082.56;1768583;80;21503;-76
2021/10/16 06:59:15;;;;;;;38.70;19.98;;;;;;;6.04;87.10;101085.95;1741222;81;21061;-76
2021/10/16 07:01:41;;;;;;;27.32;17.12;;;;;;;6.10;87.11;101085.44;1755704;81;20903;-76
2021/10/16 07:04:07;;;;;;;33.00;15.68;;;;;;;6.13;87.11;101091.81;1752845;80;21045;-76
2021/10/16 07:06:33;;;;;;;24.25;13.05;;;;;;;6.11;87.09;101091.10;1752718;81;21211;-76
2021/10/16 07:09:00;;;;;;;20.70;12.13;;;;;;;6.13;87.12;101090.96;1754803;81;21050;-76
2021/10/16 07:11:26;;;;;;;27.13;12.05;;;;;;;6.16;87.13;101092.88;1771440;80;21010;-76
2021/10/16 07:13:52;;;;;;;25.45;10.80;;;;;;;6.21;87.11;101091.19;1759983;79;21503;-76
2021/10/16 07:16:18;;;;;;;29.37;12.90;;;;;;;6.23;87.12;101090.56;1762976;80;21662;-76
2021/10/16 07:18:44;;;;;;;37.93;14.98;;;;;;;6.25;87.12;101092.62;1739316;81;21095;-76
2021/10/16 07:21:10;;;;;;;23.83;12.30;;;;;;;6.31;87.11;101094.77;1736537;81;21077;-76
2021/10/16 07:23:36;;;;;;;20.70;10.53;;;;;;;6.41;87.16;101096.53;1735367;81;21083;-76
2021/10/16 07:26:02;;;;;;;26.10;12.50;;;;;;;6.48;87.14;101097.71;1756436;80;21013;-77
2021/10/16 07:28:28;;;;;;;27.70;13.88;;;;;;;6.51;87.12;101108.53;1753284;81;21038;-77
2021/10/16 07:30:54;;;;;;;30.62;15.35;;;;;;;6.53;87.12;101100.84;1750250;81;21525;-76
2021/10/16 07:33:20;;;;;;;36.90;16.52;;;;;;;6.50;87.13;101107.72;1749692;81;21608;-76
2021/10/16 07:35:46;;;;;;;46.95;17.92;;;;;;;6.54;87.12;101102.50;1754010;80;21034;-76
2021/10/16 07:38:12;;;;;;;42.55;19.20;;;;;;;6.58;87.11;101103.59;1754626;80;20999;-76
2021/10/16 07:40:39;;;;;;;33.38;14.20;;;;;;;6.68;87.13;101105.83;1754230;80;21100;-76
2021/10/16 07:43:05;;;;;;;38.00;18.45;;;;;;;6.81;87.09;101110.45;1745429;81;21051;-76
2021/10/16 07:45:32;;;;;;;21.77;12.35;;;;;;;6.93;87.10;101109.45;1752668;80;21709;-76
2021/10/16 07:47:58;;;;;;;25.25;12.93;;;;;;;7.06;87.06;101111.41;1755749;80;21006;-76
2021/10/16 07:50:24;;;;;;;59.53;22.80;;;;;;;7.10;87.05;101130.08;1762044;80;21085;-76
2021/10/16 07:52:50;;;;;;;36.25;14.38;;;;;;;7.05;87.05;101128.28;1752326;81;21006;-76
2021/10/16 07:55:16;;;;;;;45.50;18.50;;;;;;;7.06;87.03;101124.67;1750782;80;22174;-76
2021/10/16 07:57:42;;;;;;;23.38;12.10;;;;;;;7.12;87.00;101121.48;1749667;80;21624;-77
2021/10/16 08:00:09;;;;;;;35.63;14.45;;;;;;;7.26;86.99;101123.81;1716912;82;21078;-76
2021/10/16 08:02:35;;;;;;;52.62;23.67;;;;;;;7.53;86.98;101136.02;1749635;80;21488;-76
2021/10/16 08:05:02;;;;;;;49.48;22.20;;;;;;;7.76;86.92;101139.84;1754622;80;21087;-76
2021/10/16 08:07:29;;;;;;;62.67;27.45;;;;;;;7.85;86.88;101129.73;1754297;81;21948;-76
2021/10/16 08:09:55;;;;;;;49.15;23.18;;;;;;;7.93;86.83;101133.89;1749753;81;21311;-76
2021/10/16 08:12:22;;;;;;;37.17;15.05;;;;;;;7.86;86.78;101138.91;1748811;80;21072;-77
2021/10/16 08:14:48;;;;;;;59.13;23.57;;;;;;;7.85;86.73;101138.54;1758060;80;21103;-77
2021/10/16 08:17:14;;;;;;;38.65;17.27;;;;;;;7.89;86.68;101144.42;1751815;80;21037;-76
2021/10/16 08:19:40;;;;;;;23.80;11.15;;;;;;;7.90;86.60;101138.14;1750669;80;21780;-77
2021/10/16 08:22:08;;;;;;;33.30;15.18;;;;;;;7.89;86.55;101146.59;1750846;81;21047;-77
2021/10/16 08:24:34;;;;;;;37.33;19.27;;;;;;;7.91;86.48;101144.66;1756004;80;20998;-77
2021/10/16 08:27:00;;;;;;;39.27;17.20;;;;;;;7.92;86.41;101143.66;1734884;81;21643;-78
2021/10/16 08:29:26;;;;;;;24.05;9.30;;;;;;;8.01;86.41;101146.86;1734936;82;21469;-77
2021/10/16 08:31:52;;;;;;;23.60;11.73;;;;;;;8.12;86.33;101145.91;1701935;84;21897;-77
2021/10/16 08:34:18;;;;;;;26.52;12.58;;;;;;;8.15;86.26;101144.31;1749240;81;21060;-77
2021/10/16 08:36:44;;;;;;;22.98;10.88;;;;;;;8.15;86.19;101146.13;1742899;81;21140;-77
2021/10/16 08:39:10;;;;;;;19.82;9.58;;;;;;;8.22;86.15;101142.78;1735681;81;21002;-77
2021/10/16 08:41:36;;;;;;;25.97;11.73;;;;;;;8.21;86.08;101145.08;1760831;80;21005;-77
2021/10/16 08:44:02;;;;;;;22.58;11.57;;;;;;;8.22;86.01;101145.45;1760017;81;21499;-77
2021/10/16 08:46:28;;;;;;;27.17;11.78;;;;;;;8.19;85.95;101155.50;1759994;80;20970;-78
2021/10/16 08:48:55;;;;;;;26.87;12.80;;;;;;;8.13;85.86;101146.24;1760784;80;21057;-78
2021/10/16 08:51:21;;;;;;;19.82;10.30;;;;;;;8.19;85.84;101155.50;1760622;80;21634;-77
2021/10/16 08:53:47;;;;;;;18.75;10.10;;;;;;;8.25;85.73;101155.80;1760119;81;21105;-77
2021/10/16 08:56:14;;;;;;;18.80;9.60;;;;;;;8.34;85.73;101151.02;1759975;80;21589;-80
2021/10/16 08:58:40;;;;;;;20.57;9.33;;;;;;;8.46;85.63;101145.94;1753246;80;21537;-79
2021/10/16 09:01:07;;;;;;;21.07;9.38;;;;;;;8.53;85.57;101152.38;1753548;80;21014;-79
2021/10/16 09:03:45;;;;;;;15.35;8.23;;;;;;;8.65;85.48;101145.61;1758103;81;21007;-79
2021/10/16 09:06:20;;;;;;;18.00;8.08;;;;;;;8.75;85.38;101143.30;1758314;80;21038;-79
2021/10/16 09:09:04;;;;;;;18.23;9.73;;;;;;;8.79;85.33;101150.03;1759933;80;21306;-79
2021/10/16 09:11:44;;;;;;;21.17;8.88;;;;;;;8.87;85.28;101145.31;1759628;81;21598;-78
2021/10/16 09:14:15;;;;;;;25.68;10.45;;;;;;;8.93;85.21;101147.43;1760260;81;21065;-80
2021/10/16 09:16:47;;;;;;;17.65;8.58;;;;;;;9.01;85.08;101151.53;1759631;81;21499;-80
2021/10/16 09:19:18;;;;;;;24.50;10.70;;;;;;;9.03;85.02;101155.75;1760428;81;21042;-79
2021/10/16 09:21:56;;;;;;;21.30;8.98;;;;;;;9.18;84.97;101157.49;1757782;80;21086;-80
2021/10/16 09:24:27;;;;;;;22.27;12.00;;;;;;;9.26;84.89;101160.74;1759803;81;21527;-80
2021/10/16 09:26:57;;;;;;;25.95;16.42;;;;;;;9.27;84.76;101169.09;1759869;80;20991;-79
2021/10/16 09:29:24;;;;;;;26.62;11.70;;;;;;;9.19;84.62;101168.46;1759309;81;21018;-80
2021/10/16 09:32:01;;;;;;;26.77;11.45;;;;;;;9.20;84.53;101170.16;1760360;80;21026;-79
2021/10/16 09:34:32;;;;;;;20.82;10.15;;;;;;;9.26;84.45;101166.91;1744235;80;21046;-79
2021/10/16 09:37:13;;;;;;;28.02;13.95;;;;;;;9.37;84.36;101166.76;1762077;80;21099;-80
2021/10/16 09:39:42;;;;;;;22.82;10.95;;;;;;;9.48;84.20;101170.59;1760097;80;20983;-80
2021/10/16 09:42:09;;;;;;;18.87;7.67;;;;;;;9.56;84.10;101175.69;1759270;80;21013;-80
2021/10/16 09:44:38;;;;;;;25.60;12.45;;;;;;;9.63;83.99;101174.12;1760732;81;21022;-80
2021/10/16 09:47:15;;;;;;;27.30;9.88;;;;;;;9.65;83.87;101178.31;1749332;80;21124;-79
2021/10/16 09:49:57;;;;;;;30.97;11.68;;;;;;;9.69;83.72;101172.20;1757561;80;21295;-80
2021/10/16 09:52:38;;;;;;;26.93;10.90;;;;;;;9.76;83.62;101167.98;1758590;80;20999;-81
2021/10/16 09:55:06;;;;;;;24.87;11.45;;;;;;;9.81;83.50;101169.72;1778818;80;21026;-81
2021/10/16 09:57:32;;;;;;;23.83;10.15;;;;;;;9.86;83.36;101172.77;1728727;81;21028;-81
2021/10/16 09:59:59;;;;;;;16.60;9.45;;;;;;;9.83;83.21;101173.91;1759254;81;21156;-80
2021/10/16 10:02:31;;;;;;;14.85;7.75;;;;;;;9.90;83.13;101172.34;1760584;81;21086;-80
2021/10/16 10:04:57;;;;;;;16.20;6.40;;;;;;;9.95;83.02;101167.91;1765192;80;21025;-80
2021/10/16 10:07:24;;;;;;;19.27;8.43;;;;;;;9.99;82.86;101167.97;1764565;80;21085;-81
2021/10/16 10:09:50;;;;;;;17.65;7.42;;;;;;;10.11;82.76;101159.27;1760160;81;21061;-81
2021/10/16 10:12:17;;;;;;;12.68;6.42;;;;;;;10.20;82.65;101165.93;1760218;81;21122;-80
2021/10/16 10:14:48;;;;;;;9.50;6.15;;;;;;;10.25;82.47;101160.13;1759473;80;20999;-81
2021/10/16 10:17:26;;;;;;;10.58;6.20;;;;;;;10.32;82.34;101161.21;1760580;80;21026;-81
2021/10/16 10:20:02;;;;;;;13.30;6.42;;;;;;;10.29;82.13;101166.84;1759904;80;21323;-80
2021/10/16 10:22:34;;;;;;;11.53;6.67;;;;;;;10.32;81.96;101163.88;1734028;81;21875;-81
2021/10/16 10:25:00;;;;;;;17.95;6.72;;;;;;;10.36;81.81;101162.11;1729021;83;21088;-81
2021/10/16 10:27:27;;;;;;;15.43;6.47;;;;;;;10.37;81.67;101165.13;1726207;83;21014;-81
2021/10/16 10:29:54;;;;;;;17.42;6.92;;;;;;;10.42;81.49;101159.32;1725654;83;21003;-81
2021/10/16 10:32:23;;;;;;;18.75;6.85;;;;;;;10.45;81.32;101162.52;1725961;83;21495;-81
2021/10/16 10:35:04;;;;;;;15.43;7.50;;;;;;;10.58;81.18;101168.00;1731496;81;21003;-81
2021/10/16 10:37:39;;;;;;;20.25;9.60;;;;;;;10.57;80.98;101170.31;1742475;80;21256;-80
2021/10/16 10:40:17;;;;;;;16.80;8.40;;;;;;;10.60;80.81;101168.19;1757661;80;20999;-81
2021/10/16 10:42:45;;;;;;;14.65;7.12;;;;;;;10.66;80.62;101170.77;1768395;80;21013;-80
2021/10/16 10:45:31;;;;;;;19.30;8.13;;;;;;;10.72;80.45;101163.48;1760004;81;20978;-80
2021/10/16 10:48:07;;;;;;;21.73;8.05;;;;;;;10.82;80.35;101154.41;1792654;80;21514;-80
2021/10/16 10:50:52;;;;;;;19.15;8.95;;;;;;;10.88;80.13;101155.61;1792633;80;21773;-80
2021/10/16 10:53:33;;;;;;;18.27;7.85;;;;;;;10.93;79.97;101158.67;1792712;80;21017;-80
2021/10/16 10:56:09;;;;;;;15.58;6.28;;;;;;;10.88;79.77;101151.61;1792663;80;20963;-80
2021/10/16 10:58:57;;;;;;;13.78;5.08;;;;;;;10.80;79.58;101139.55;1760572;81;21016;-80
2021/10/16 11:01:45;;;;;;;17.07;6.92;;;;;;;10.78;79.42;101142.85;1792529;80;20963;-80
2021/10/16 11:04:37;;;;;;;19.07;7.45;;;;;;;10.91;79.31;101145.47;1790598;80;21132;-80
2021/10/16 11:07:06;;;;;;;22.73;7.90;;;;;;;11.16;79.08;101142.99;1765029;81;20982;-80
2021/10/16 11:09:32;;;;;;;14.78;6.45;;;;;;;11.46;78.96;101143.40;1793007;80;20990;-80
2021/10/16 11:11:58;;;;;;;18.57;6.42;;;;;;;11.83;78.76;101143.61;1759785;81;21021;-80
2021/10/16 11:14:35;;;;;;;13.35;6.08;;;;;;;11.91;78.52;101140.50;1792627;80;21045;-80
2021/10/16 11:17:07;;;;;;;17.02;5.75;;;;;;;12.03;78.31;101138.38;1788923;80;21143;-80
2021/10/16 11:19:55;;;;;;;13.40;6.75;;;;;;;12.10;78.11;101134.06;1764940;81;20943;-80
2021/10/16 11:22:52;;;;;;;18.57;8.75;;;;;;;12.15;77.92;101133.06;1792702;80;21010;-80
2021/10/16 11:25:26;;;;;;;19.05;14.23;;;;;;;12.07;77.66;101133.02;1759515;81;21119;-80